Time;durP1;ratioP1;P1;durP2;ratioP2;P2;SDS_P1;SDS_P2;PMS_P1;PMS_P2;Temp;Humidity;BMP_temperature;BMP_pressure;BME280_temperature;BME280_humidity;BME280_pressure;Samples;Min_cycle;Max_cycle;Signal;HPM_P1;HPM_P2
2022/07/27 00:00:07;;;;;;;2.37;1.87;;;;;;;23.41;44.77;98696.88;6924650;28;20219;-79
2022/07/27 00:03:28;;;;;;;3.67;2.20;;;;;;;23.31;45.20;98702.47;6925003;28;20320;-79
2022/07/27 00:06:50;;;;;;;2.07;1.87;;;;;;;23.43;45.04;98709.22;6924792;28;20213;-79
2022/07/27 00:10:11;;;;;;;2.27;2.10;;;;;;;23.09;45.48;98680.91;6924366;28;20262;-79
2022/07/27 00:13:34;;;;;;;4.27;2.00;;;;;;;23.19;45.55;98702.03;6924511;28;20230;-79
2022/07/27 00:16:56;;;;;;;2.30;2.10;;;;;;;22.48;47.22;98715.44;6925016;28;20570;-79
2022/07/27 00:20:17;;;;;;;2.37;2.00;;;;;;;22.75;47.18;98712.25;6923746;28;20228;-78
2022/07/27 00:23:39;;;;;;;2.10;1.90;;;;;;;23.15;45.74;98707.28;6924685;28;20278;-79
2022/07/27 00:27:01;;;;;;;5.03;2.10;;;;;;;22.60;46.82;98709.63;6925652;28;20215;-78
2022/07/27 00:30:24;;;;;;;2.60;2.23;;;;;;;22.64;46.92;98696.94;6926255;28;20211;-79
2022/07/27 00:33:47;;;;;;;2.97;2.67;;;;;;;23.27;45.47;98705.00;6939234;28;20230;-80
2022/07/27 00:37:09;;;;;;;2.07;1.93;;;;;;;22.91;46.37;98714.63;6939495;28;20191;-79
2022/07/27 00:40:30;;;;;;;3.47;2.30;;;;;;;22.65;47.67;98717.84;6927704;28;20319;-79
2022/07/27 00:43:54;;;;;;;3.33;2.00;;;;;;;23.00;46.49;98710.13;6923647;28;20238;-79
2022/07/27 00:47:17;;;;;;;1.90;1.80;;;;;;;23.08;46.40;98678.44;6922795;28;20250;-79
2022/07/27 00:50:41;;;;;;;3.13;2.20;;;;;;;23.00;46.49;98674.38;6922934;28;20731;-79
2022/07/27 00:54:03;;;;;;;3.10;2.00;;;;;;;22.59;46.31;98622.78;6923041;28;20203;-79
2022/07/27 00:57:24;;;;;;;4.13;2.10;;;;;;;22.90;46.41;98682.72;6923016;28;20229;-79
2022/07/27 01:00:46;;;;;;;1.93;1.83;;;;;;;22.85;47.37;98691.03;6927487;28;20255;-79
2022/07/27 01:04:09;;;;;;;2.53;2.10;;;;;;;22.83;47.40;98682.22;6924095;28;20213;-79
2022/07/27 01:07:31;;;;;;;2.57;2.00;;;;;;;22.87;46.93;98694.31;6922832;28;20265;-79
2022/07/27 01:10:55;;;;;;;2.57;2.37;;;;;;;22.18;48.87;98663.38;6923305;28;20761;-79
2022/07/27 01:14:17;;;;;;;2.73;2.20;;;;;;;22.39;48.00;98664.94;6922799;28;20237;-79
2022/07/27 01:17:38;;;;;;;2.60;2.00;;;;;;;22.71;47.46;98681.75;6937647;28;20199;-80
2022/07/27 01:21:04;;;;;;;3.07;2.43;;;;;;;22.41;48.18;98676.44;6935714;28;20963;-79
2022/07/27 01:24:26;;;;;;;2.30;2.10;;;;;;;22.67;47.86;98660.63;6923400;28;20211;-79
2022/07/27 01:27:48;;;;;;;5.27;2.40;;;;;;;22.21;48.08;98612.56;6921777;28;20204;-79
2022/07/27 01:31:09;;;;;;;2.40;2.20;;;;;;;22.52;47.68;98671.72;6921175;28;20297;-79
2022/07/27 01:34:32;;;;;;;3.17;2.70;;;;;;;21.46;49.40;98588.19;6921969;28;20198;-78
2022/07/27 01:37:53;;;;;;;3.50;2.30;;;;;;;22.19;49.22;98654.03;6921523;28;20212;-79
2022/07/27 01:41:16;;;;;;;2.60;2.20;;;;;;;22.42;48.51;98653.34;6922145;28;20318;-79
2022/07/27 01:44:38;;;;;;;2.70;2.43;;;;;;;21.88;49.44;98646.22;6921736;28;20211;-79
2022/07/27 01:48:00;;;;;;;3.63;2.53;;;;;;;21.87;49.55;98642.69;6921553;28;20273;-79
2022/07/27 01:51:21;;;;;;;3.40;2.50;;;;;;;21.91;49.42;98643.78;6921584;28;20249;-79
2022/07/27 01:54:43;;;;;;;5.13;2.30;;;;;;;22.23;48.67;98649.63;6921510;28;20196;-79
2022/07/27 01:58:06;;;;;;;2.60;2.40;;;;;;;21.83;49.81;98643.53;6921338;28;20285;-78
2022/07/27 02:01:28;;;;;;;5.80;2.70;;;;;;;21.44;50.97;98642.53;6921414;28;20598;-79
2022/07/27 02:04:50;;;;;;;3.27;2.90;;;;;;;21.64;50.58;98645.19;6921482;28;20216;-79
2022/07/27 02:08:12;;;;;;;7.70;2.67;;;;;;;21.82;49.89;98650.94;6921134;28;20371;-79
2022/07/27 02:15:16;;;;;;;3.13;2.83;;;;;;;21.27;51.33;98626.41;6921519;28;20228;-79
2022/07/27 02:18:37;;;;;;;4.10;2.70;;;;;;;21.45;51.29;98628.53;6921092;28;20194;-79
2022/07/27 02:21:59;;;;;;;3.47;2.50;;;;;;;21.62;50.30;98629.03;6920741;28;20323;-79
2022/07/27 02:25:20;;;;;;;3.03;2.73;;;;;;;21.50;50.78;98641.41;6920827;28;20839;-79
2022/07/27 02:28:42;;;;;;;2.80;2.60;;;;;;;20.87;52.48;98655.75;6920221;28;20230;-78
2022/07/27 02:32:06;;;;;;;3.87;2.50;;;;;;;21.22;51.70;98644.78;6920437;28;20262;-79
2022/07/27 02:35:27;;;;;;;5.03;2.83;;;;;;;21.35;51.25;98653.25;6921096;28;20242;-79
2022/07/27 02:38:49;;;;;;;3.87;2.83;;;;;;;21.70;49.90;98655.91;6920413;28;20294;-79
2022/07/27 02:42:10;;;;;;;4.30;2.90;;;;;;;21.19;50.91;98659.84;6921035;28;20258;-79
2022/07/27 02:45:32;;;;;;;4.50;2.93;;;;;;;20.77;52.98;98653.03;6920587;28;20305;-79
2022/07/27 02:48:54;;;;;;;3.60;2.90;;;;;;;;;;6920485;28;20304;-78
2022/07/27 02:52:16;;;;;;;3.13;2.80;;;;;;;21.33;51.23;98654.63;6920379;28;20373;-79
2022/07/27 02:55:37;;;;;;;3.10;2.80;;;;;;;20.75;52.53;98665.34;6920462;28;20265;-78
2022/07/27 02:58:59;;;;;;;3.07;2.87;;;;;;;20.60;52.78;98660.69;6922036;28;23539;-79
2022/07/27 03:02:20;;;;;;;3.80;2.90;;;;;;;20.51;53.80;98661.50;6952566;28;20231;-79
2022/07/27 03:05:43;;;;;;;3.73;3.00;;;;;;;21.01;52.12;98656.03;6953134;28;20217;-79
2022/07/27 03:09:05;;;;;;;3.57;3.03;;;;;;;20.82;52.76;98663.16;6953745;28;20203;-79
2022/07/27 03:12:26;;;;;;;5.77;3.23;;;;;;;20.87;52.37;98644.78;6952670;28;20229;-79
2022/07/27 03:15:48;;;;;;;3.37;3.07;;;;;;;21.24;51.22;98656.31;6952600;28;20283;-78
2022/07/27 03:19:10;;;;;;;4.00;3.27;;;;;;;20.54;53.18;98647.25;6951864;28;20210;-79
2022/07/27 03:22:33;;;;;;;3.53;3.23;;;;;;;21.01;52.08;98651.41;6952100;28;20229;-79
2022/07/27 03:25:55;;;;;;;4.80;3.10;;;;;;;20.88;51.95;98662.06;6959027;28;20245;-79
2022/07/27 03:29:19;;;;;;;4.93;3.53;;;;;;;19.86;55.54;98664.03;6974128;28;20200;-79
2022/07/27 03:32:42;;;;;;;5.77;3.43;;;;;;;20.80;52.93;98648.91;6952872;28;20274;-79
2022/07/27 03:36:04;;;;;;;3.60;3.07;;;;;;;21.04;52.20;98652.78;6954905;28;20662;-79
2022/07/27 03:39:27;;;;;;;5.60;3.60;;;;;;;20.62;51.51;98562.59;6954590;28;20252;-78
2022/07/27 03:42:48;;;;;;;5.40;3.23;;;;;;;20.75;52.86;98646.97;6954798;28;20253;-77
2022/07/27 03:46:11;;;;;;;3.37;3.07;;;;;;;21.22;51.47;98658.47;6954434;28;20352;-79
2022/07/27 03:49:32;;;;;;;4.00;3.60;;;;;;;20.47;52.77;98633.00;6953277;28;20349;-78
2022/07/27 03:52:55;;;;;;;7.90;3.43;;;;;;;20.23;53.68;98629.13;6953911;28;20264;-78
2022/07/27 03:56:17;;;;;;;4.77;3.87;;;;;;;19.99;55.17;98672.53;6953564;28;20213;-79
2022/07/27 03:59:39;;;;;;;4.40;3.67;;;;;;;20.51;53.79;98656.81;6952718;28;20296;-79
2022/07/27 04:03:01;;;;;;;4.00;3.70;;;;;;;20.33;53.94;98637.38;6954016;28;20255;-79
2022/07/27 04:06:22;;;;;;;3.60;3.40;;;;;;;20.29;54.11;98633.53;6953792;28;20209;-79
2022/07/27 04:09:44;;;;;;;5.83;4.20;;;;;;;20.41;54.15;98659.53;6951503;28;20271;-78
2022/07/27 04:13:06;;;;;;;4.30;3.30;;;;;;;21.01;52.37;98650.56;6951593;28;20262;-79
2022/07/27 04:16:28;;;;;;;4.13;3.57;;;;;;;21.07;52.12;98649.47;6952654;28;20212;-79
2022/07/27 04:19:49;;;;;;;5.30;3.53;;;;;;;21.05;51.16;98657.16;6952019;28;20260;-79
2022/07/27 04:23:11;;;;;;;4.47;3.90;;;;;;;20.67;52.74;98679.56;6952422;28;20306;-78
2022/07/27 04:26:32;;;;;;;3.83;3.43;;;;;;;21.00;52.34;98682.66;6952987;28;20341;-79
2022/07/27 04:29:55;;;;;;;3.93;3.50;;;;;;;20.99;52.74;98682.91;6952789;28;20646;-78
2022/07/27 04:33:17;;;;;;;4.27;3.37;;;;;;;21.33;51.78;98668.34;6951432;28;20225;-79
2022/07/27 04:36:39;;;;;;;3.53;3.03;;;;;;;21.41;51.25;98678.72;6964901;28;20213;-79
2022/07/27 04:40:00;;;;;;;4.20;3.37;;;;;;;21.44;51.61;98697.41;6963263;28;20224;-79
2022/07/27 04:43:22;;;;;;;4.23;3.83;;;;;;;20.88;52.94;98709.47;6952067;28;20249;-78
2022/07/27 04:46:45;;;;;;;4.67;3.70;;;;;;;20.69;54.08;98697.38;6952864;28;20308;-79
2022/07/27 04:50:07;;;;;;;5.97;3.73;;;;;;;21.09;53.33;98697.44;6951338;28;20262;-79
2022/07/27 04:53:29;;;;;;;5.47;3.80;;;;;;;21.27;52.82;98696.88;6950942;28;20215;-79
2022/07/27 04:56:51;;;;;;;3.97;3.57;;;;;;;21.30;52.43;98663.44;6952571;28;20208;-79
2022/07/27 05:00:13;;;;;;;3.53;3.10;;;;;;;21.88;51.08;98684.66;6950037;28;20274;-78
2022/07/27 05:03:36;;;;;;;3.67;3.33;;;;;;;22.15;50.43;98696.94;6952862;28;20226;-79
2022/07/27 05:06:57;;;;;;;4.60;3.80;;;;;;;21.88;51.03;98674.50;6951270;28;20217;-79
2022/07/27 05:10:19;;;;;;;6.33;3.57;;;;;;;21.84;51.13;98694.59;6950784;28;20291;-78
2022/07/27 05:13:41;;;;;;;4.50;3.60;;;;;;;22.16;50.34;98706.81;6951724;28;20233;-78
2022/07/27 05:17:02;;;;;;;3.50;3.17;;;;;;;22.36;49.49;98675.66;6951626;28;20201;-79
2022/07/27 05:20:25;;;;;;;4.27;3.67;;;;;;;22.42;49.40;98689.06;6951086;28;20317;-78
2022/07/27 05:23:47;;;;;;;4.43;3.43;;;;;;;22.54;49.66;98699.75;6951664;28;20225;-79
2022/07/27 05:27:08;;;;;;;3.90;3.60;;;;;;;22.59;49.80;98713.47;6964318;28;20199;-79
2022/07/27 05:30:30;;;;;;;3.90;3.50;;;;;;;22.75;49.30;98720.50;6964087;28;20233;-79
2022/07/27 05:33:51;;;;;;;3.97;3.53;;;;;;;22.65;50.09;98707.66;6965694;28;20233;-79
2022/07/27 05:37:14;;;;;;;5.30;3.47;;;;;;;22.85;50.03;98726.78;6975453;28;20242;-79
2022/07/27 05:40:36;;;;;;;4.60;3.40;;;;;;;23.06;49.20;98719.19;6948658;28;20383;-78
2022/07/27 05:43:58;;;;;;;3.80;3.50;;;;;;;22.96;49.11;98716.50;6949512;28;20210;-78
2022/07/27 05:47:19;;;;;;;5.50;3.80;;;;;;;22.50;50.50;98731.66;6949226;28;20228;-78
2022/07/27 05:50:41;;;;;;;4.37;3.97;;;;;;;22.70;49.75;98731.53;6950769;28;20289;-79
2022/07/27 05:54:04;;;;;;;9.23;3.80;;;;;;;22.78;49.81;98740.00;6943590;28;20230;-78
2022/07/27 05:57:25;;;;;;;5.60;4.00;;;;;;;22.79;49.23;98738.06;6923362;28;20237;-78
2022/07/27 06:00:47;;;;;;;5.27;4.50;;;;;;;22.45;50.19;98745.41;6946300;28;20258;-79
2022/07/27 06:04:10;;;;;;;8.90;4.40;;;;;;;22.98;49.16;98723.38;6949773;28;20220;-79
2022/07/27 06:11:17;;;;;;;8.03;3.80;;;;;;;23.01;48.49;98736.53;6919341;28;20221;-79
2022/07/27 06:14:39;;;;;;;4.77;4.10;;;;;;;23.31;47.99;98743.75;6923323;28;20226;-79
2022/07/27 06:18:02;;;;;;;6.47;3.90;;;;;;;23.59;47.22;98738.25;6923696;28;20374;-79
2022/07/27 06:21:25;;;;;;;6.30;3.90;;;;;;;23.94;46.61;98728.81;6923760;28;20263;-80
2022/07/27 06:24:46;;;;;;;5.17;3.47;;;;;;;23.90;45.98;98736.84;6924016;28;20264;-78
2022/07/27 06:28:09;;;;;;;4.57;4.07;;;;;;;23.90;46.64;98734.09;6926323;28;20215;-80
2022/07/27 06:31:31;;;;;;;4.37;3.97;;;;;;;24.27;46.48;98748.00;6923962;28;20234;-80
2022/07/27 06:34:53;;;;;;;5.00;3.80;;;;;;;24.45;45.22;98754.63;6923313;28;20207;-80
2022/07/27 06:38:14;;;;;;;4.90;3.60;;;;;;;24.41;45.44;98748.91;6921265;28;20283;-78
2022/07/27 06:41:36;;;;;;;4.07;3.60;;;;;;;23.98;45.92;98743.66;6921444;28;20279;-78
2022/07/27 06:44:59;;;;;;;6.30;4.33;;;;;;;24.52;45.10;98739.38;6921774;28;20222;-77
2022/07/27 06:48:21;;;;;;;4.73;4.30;;;;;;;24.47;44.78;98747.72;6920911;28;20208;-78
2022/07/27 06:51:42;;;;;;;5.13;4.50;;;;;;;24.76;44.21;98733.81;6923725;28;20242;-80
2022/07/27 06:55:04;;;;;;;6.23;3.73;;;;;;;24.83;44.99;98742.56;6924850;28;20224;-80
2022/07/27 06:58:26;;;;;;;6.70;3.77;;;;;;;24.76;44.79;98723.63;6923689;28;20210;-80
2022/07/27 07:01:49;;;;;;;8.13;3.70;;;;;;;25.47;42.80;98760.03;6924277;28;20595;-80
2022/07/27 07:05:10;;;;;;;8.23;3.50;;;;;;;25.42;42.88;98749.06;6924757;28;20294;-80
2022/07/27 07:08:32;;;;;;;7.30;3.80;;;;;;;24.92;43.56;98735.25;6923262;28;20211;-80
2022/07/27 07:11:53;;;;;;;5.13;3.80;;;;;;;24.94;43.66;98739.34;6923987;28;20235;-79
2022/07/27 07:15:15;;;;;;;5.17;3.83;;;;;;;25.20;42.63;98666.06;6924907;28;20367;-79
2022/07/27 07:18:38;;;;;;;4.90;3.60;;;;;;;25.82;41.89;98740.06;6923485;28;20200;-80
2022/07/27 07:22:00;;;;;;;5.73;3.63;;;;;;;25.85;41.57;98727.59;6924918;28;20282;-79
2022/07/27 07:25:21;;;;;;;6.13;3.57;;;;;;;26.17;41.15;98722.81;6922000;28;20211;-80
2022/07/27 07:28:43;;;;;;;9.20;3.63;;;;;;;26.16;41.00;98728.63;6921908;28;20204;-79
2022/07/27 07:32:05;;;;;;;6.30;3.90;;;;;;;26.39;40.83;98747.78;6920848;28;20261;-78
2022/07/27 07:35:28;;;;;;;5.50;4.00;;;;;;;26.32;40.69;98733.53;6922087;28;20546;-79
2022/07/27 07:38:50;;;;;;;5.83;3.93;;;;;;;26.38;39.96;98657.69;6920469;28;20215;-79
2022/07/27 07:42:11;;;;;;;5.40;4.17;;;;;;;26.09;41.11;98731.84;6922596;28;20253;-79
2022/07/27 07:45:36;;;;;;;4.07;3.67;;;;;;;26.84;39.53;98718.34;6946000;28;20188;-79
2022/07/27 07:48:58;;;;;;;4.07;3.50;;;;;;;25.97;41.54;98730.69;6925865;28;20228;-79
2022/07/27 07:52:21;;;;;;;4.17;3.47;;;;;;;26.88;39.40;98728.44;6927258;28;20237;-79
2022/07/27 07:55:42;;;;;;;6.17;3.50;;;;;;;27.47;37.99;98716.22;6929534;28;20684;-80
2022/07/27 07:59:04;;;;;;;6.07;3.40;;;;;;;28.25;36.80;98730.16;6927886;28;20720;-79
2022/07/27 08:02:26;;;;;;;5.33;3.27;;;;;;;28.39;37.02;98723.41;6929064;28;20234;-79
2022/07/27 08:05:47;;;;;;;3.50;3.10;;;;;;;27.74;37.73;98703.03;6928341;28;20301;-80
2022/07/27 08:09:11;;;;;;;3.80;3.50;;;;;;;27.94;37.33;98732.97;6927078;28;20204;-80
2022/07/27 08:12:33;;;;;;;4.70;3.47;;;;;;;27.40;38.89;98726.94;6927903;28;20235;-79
2022/07/27 08:15:55;;;;;;;4.70;3.37;;;;;;;27.64;38.50;98711.59;6927492;28;20298;-80
2022/07/27 08:19:16;;;;;;;5.03;3.30;;;;;;;27.40;38.38;98666.00;6927743;28;20202;-80
2022/07/27 08:22:38;;;;;;;3.43;3.23;;;;;;;26.84;39.74;98732.16;6928241;28;20256;-80
2022/07/27 08:26:01;;;;;;;4.77;3.07;;;;;;;27.20;39.23;98736.56;6928629;28;20269;-80
2022/07/27 08:29:22;;;;;;;4.10;3.57;;;;;;;27.30;39.00;98736.31;6927798;28;20203;-79
2022/07/27 08:32:51;;;;;;;6.50;4.10;;;;;;;27.57;38.99;98744.50;6929053;28;20306;-78
2022/07/27 08:36:13;;;;;;;5.03;3.57;;;;;;;27.78;38.94;98740.06;6929394;28;20207;-80
2022/07/27 08:39:34;;;;;;;4.10;3.30;;;;;;;28.25;37.76;98736.50;6930337;28;20311;-80
2022/07/27 08:42:58;;;;;;;4.67;3.40;;;;;;;28.49;37.55;98731.41;6927571;28;20230;-78
2022/07/27 08:46:21;;;;;;;3.40;3.10;;;;;;;28.82;36.54;98729.00;6930360;28;20708;-80
2022/07/27 08:49:43;;;;;;;4.07;3.40;;;;;;;28.39;37.14;98730.88;6930281;28;20692;-80
2022/07/27 08:53:07;;;;;;;4.73;3.43;;;;;;;28.09;37.78;98735.34;6932472;28;20247;-81
2022/07/27 08:56:29;;;;;;;3.40;3.10;;;;;;;27.98;37.72;98717.34;6929249;28;20205;-80
2022/07/27 08:59:55;;;;;;;5.20;3.20;;;;;;;28.50;37.64;98738.59;6927327;28;20288;-80
2022/07/27 09:03:18;;;;;;;3.60;3.30;;;;;;;28.96;35.61;98726.94;6929042;28;20241;-80
2022/07/27 09:06:41;;;;;;;4.60;3.40;;;;;;;28.32;36.71;98723.00;6927247;28;20444;-79
2022/07/27 09:10:03;;;;;;;6.60;3.33;;;;;;;28.49;37.09;98716.72;6925233;28;20660;-80
2022/07/27 09:13:26;;;;;;;5.27;3.27;;;;;;;28.42;36.54;98725.50;6927654;28;20239;-80
2022/07/27 09:16:49;;;;;;;4.73;3.80;;;;;;;26.80;38.81;98692.41;6928274;28;20295;-81
2022/07/27 09:20:15;;;;;;;5.77;3.80;;;;;;;27.57;37.92;98730.63;6927812;28;20204;-80
2022/07/27 09:23:37;;;;;;;4.00;3.60;;;;;;;28.38;36.79;98727.28;6924099;28;20315;-79
2022/07/27 09:27:02;;;;;;;6.33;3.43;;;;;;;28.86;36.06;98728.03;6925185;28;20213;-80
2022/07/27 09:30:26;;;;;;;5.57;3.43;;;;;;;29.78;34.62;98730.28;6935910;28;20233;-79
2022/07/27 09:33:52;;;;;;;6.13;3.67;;;;;;;29.20;34.29;98728.06;6926322;28;20319;-80
2022/07/27 09:37:23;;;;;;;3.43;3.13;;;;;;;29.72;33.73;98699.06;6929899;28;20302;-80
2022/07/27 09:40:45;;;;;;;5.30;3.63;;;;;;;29.01;34.46;98737.88;6930183;28;20229;-80
2022/07/27 09:44:06;;;;;;;3.37;3.10;;;;;;;28.98;35.15;98741.28;6929420;28;20214;-80
2022/07/27 09:47:29;;;;;;;4.57;3.33;;;;;;;29.67;34.84;98737.34;6929501;28;20222;-81
2022/07/27 09:51:02;;;;;;;4.13;3.20;;;;;;;29.16;35.44;98745.72;6928449;28;20232;-81
2022/07/27 09:54:24;;;;;;;3.90;3.37;;;;;;;30.53;32.18;98736.69;6948917;28;20179;-80
2022/07/27 09:57:53;;;;;;;4.37;3.37;;;;;;;29.20;35.56;98725.28;6921671;28;20213;-78
2022/07/27 10:01:17;;;;;;;4.70;3.13;;;;;;;28.97;35.72;98736.91;6921894;28;20238;-78
2022/07/27 10:04:38;;;;;;;3.17;2.87;;;;;;;29.79;34.69;98734.69;6921817;28;20217;-78
2022/07/27 10:08:01;;;;;;;3.87;3.57;;;;;;;28.24;36.71;98715.47;6921842;28;20218;-77
2022/07/27 10:11:23;;;;;;;5.00;3.07;;;;;;;29.23;36.25;98735.75;6924762;28;20234;-78
2022/07/27 10:14:45;;;;;;;6.03;3.10;;;;;;;29.34;35.71;98739.00;6922189;28;20789;-78
2022/07/27 10:18:09;;;;;;;5.10;3.13;;;;;;;29.81;34.70;98738.78;6920921;28;20271;-78
2022/07/27 10:21:31;;;;;;;4.70;3.23;;;;;;;29.87;34.59;98729.13;6921807;28;20232;-78
2022/07/27 10:24:59;;;;;;;4.20;3.03;;;;;;;30.02;33.80;98736.09;6927322;28;20217;-79
2022/07/27 10:28:21;;;;;;;3.27;2.90;;;;;;;30.81;33.07;98731.47;6926777;28;20199;-79
2022/07/27 10:31:44;;;;;;;4.73;3.03;;;;;;;30.82;32.34;98727.50;6933612;28;20262;-79
2022/07/27 10:35:31;;;;;;;3.53;2.87;;;;;;;30.18;32.66;98732.44;6938944;28;20217;-80
2022/07/27 10:38:55;;;;;;;3.47;3.00;;;;;;;30.37;32.64;98730.06;6934810;28;20190;-80
2022/07/27 10:42:26;;;;;;;5.10;2.70;;;;;;;31.13;31.72;98725.97;6925064;28;20239;-79
2022/07/27 10:45:49;;;;;;;5.13;2.80;;;;;;;31.47;31.06;98719.28;6927203;28;20210;-79
2022/07/27 10:49:18;;;;;;;3.00;2.70;;;;;;;31.27;31.22;98709.81;6926921;28;20198;-79
2022/07/27 10:52:41;;;;;;;4.37;2.90;;;;;;;32.24;29.96;98725.66;6925650;28;20393;-79
2022/07/27 10:56:03;;;;;;;4.97;3.00;;;;;;;29.58;33.06;98720.69;6951527;28;20237;-79
2022/07/27 10:59:50;;;;;;;4.10;2.50;;;;;;;30.01;31.88;98724.16;6951194;28;20224;-79
2022/07/27 11:03:20;;;;;;;3.63;2.40;;;;;;;30.03;32.25;98701.56;6939628;28;20294;-79
2022/07/27 11:06:41;;;;;;;3.00;2.70;;;;;;;30.19;31.71;98716.59;6953394;28;20206;-79
2022/07/27 11:10:03;;;;;;;3.07;2.80;;;;;;;30.23;31.57;98686.94;6951779;28;20260;-79
2022/07/27 11:13:26;;;;;;;4.57;2.60;;;;;;;31.33;30.71;98704.84;6952487;28;20655;-79
2022/07/27 11:16:49;;;;;;;5.60;2.90;;;;;;;30.79;30.39;98697.59;6952427;28;20208;-79
2022/07/27 11:20:11;;;;;;;3.20;2.53;;;;;;;30.63;30.86;98702.91;6951928;28;20210;-79
2022/07/27 11:23:33;;;;;;;3.47;2.57;;;;;;;30.35;29.86;98679.50;6957196;28;20238;-79
2022/07/27 11:26:54;;;;;;;2.27;2.03;;;;;;;31.89;27.60;98685.38;6958123;28;20344;-80
2022/07/27 11:30:24;;;;;;;4.90;2.30;;;;;;;31.66;28.22;98683.34;6957971;28;20622;-79
2022/07/27 11:33:55;;;;;;;2.50;2.27;;;;;;;31.47;28.01;98688.63;6956599;28;20232;-79
2022/07/27 11:37:18;;;;;;;4.07;2.30;;;;;;;30.69;30.45;98689.63;6969034;28;20195;-80
2022/07/27 11:40:45;;;;;;;2.63;2.40;;;;;;;30.33;30.68;98678.22;6958296;28;20301;-79
2022/07/27 11:44:08;;;;;;;4.53;2.40;;;;;;;29.78;30.39;98686.63;6957818;28;20243;-79
2022/07/27 11:47:29;;;;;;;2.50;2.30;;;;;;;29.99;30.33;98689.47;6957258;28;20291;-79
2022/07/27 11:50:58;;;;;;;2.30;2.10;;;;;;;30.15;29.30;98677.50;6956594;28;20239;-79
2022/07/27 11:54:21;;;;;;;2.10;2.00;;;;;;;30.72;28.72;98669.47;6957783;28;20227;-79
2022/07/27 11:57:42;;;;;;;3.53;2.53;;;;;;;30.72;28.14;98680.59;6957364;28;20211;-80
2022/07/27 12:01:04;;;;;;;6.33;2.17;;;;;;;30.21;27.58;98676.16;6966447;28;20228;-80
2022/07/27 12:04:27;;;;;;;1.90;1.80;;;;;;;29.52;27.87;98671.97;6970182;28;20277;-79
2022/07/27 12:07:50;;;;;;;2.17;1.97;;;;;;;30.87;26.11;98674.41;6956545;28;20211;-79
2022/07/27 12:11:11;;;;;;;2.20;2.00;;;;;;;30.67;27.38;98628.72;6957183;28;20626;-79
2022/07/27 12:14:38;;;;;;;1.83;1.70;;;;;;;30.40;27.21;98612.53;6957715;28;20213;-79
2022/07/27 12:18:00;;;;;;;2.40;1.90;;;;;;;31.68;24.64;98661.50;6956959;28;20401;-79
2022/07/27 12:21:22;;;;;;;2.10;1.90;;;;;;;31.57;25.18;98665.88;6957797;28;20265;-80
2022/07/27 12:24:44;;;;;;;2.63;1.90;;;;;;;31.63;26.24;98672.88;6958065;28;20210;-79
2022/07/27 12:28:08;;;;;;;2.93;2.00;;;;;;;32.12;26.54;98649.47;6957224;28;20212;-79
2022/07/27 12:31:29;;;;;;;2.17;2.00;;;;;;;31.37;27.55;98670.34;6956987;28;20234;-79
2022/07/27 12:34:51;;;;;;;2.70;2.03;;;;;;;29.96;29.70;98671.50;6957571;28;20195;-79
2022/07/27 12:38:13;;;;;;;2.80;2.20;;;;;;;30.57;29.10;98675.59;6957287;28;20683;-79
2022/07/27 12:41:36;;;;;;;4.03;2.23;;;;;;;31.51;27.31;98670.06;6959465;28;20231;-79
2022/07/27 12:44:58;;;;;;;2.27;1.87;;;;;;;33.00;25.85;98665.09;6959884;28;20289;-79
2022/07/27 12:48:21;;;;;;;2.13;1.93;;;;;;;32.40;26.08;98662.41;6966095;28;20206;-79
2022/07/27 12:51:43;;;;;;;1.80;1.70;;;;;;;32.29;25.54;98674.38;6959669;28;20234;-80
2022/07/27 12:55:05;;;;;;;3.43;1.87;;;;;;;31.10;26.97;98629.16;6941491;28;20290;-79
2022/07/27 12:58:28;;;;;;;2.20;2.00;;;;;;;31.72;26.53;98645.75;6924896;28;20207;-79
2022/07/27 13:01:51;;;;;;;2.47;2.10;;;;;;;32.64;25.50;98658.75;6926624;28;20380;-79
2022/07/27 13:05:14;;;;;;;3.57;1.97;;;;;;;32.15;25.77;98663.56;6925056;28;20211;-79
2022/07/27 13:08:35;;;;;;;1.97;1.73;;;;;;;31.51;25.21;98661.69;6926560;28;20216;-79
2022/07/27 13:11:57;;;;;;;1.90;1.80;;;;;;;31.42;26.37;98644.28;6925912;28;20232;-79
2022/07/27 13:15:20;;;;;;;2.13;1.93;;;;;;;32.27;25.33;98634.84;6926188;28;20664;-79
2022/07/27 13:18:42;;;;;;;2.50;1.60;;;;;;;31.72;26.04;98637.38;6925023;28;20243;-79
2022/07/27 13:22:04;;;;;;;2.37;2.00;;;;;;;32.33;25.15;98633.44;6925151;28;20792;-80
2022/07/27 13:25:25;;;;;;;2.47;1.80;;;;;;;32.43;25.47;98632.97;6924604;28;20196;-79
2022/07/27 13:28:48;;;;;;;3.40;1.90;;;;;;;31.72;26.15;98637.38;6924873;28;20295;-79
2022/07/27 13:32:11;;;;;;;1.80;1.70;;;;;;;31.18;25.67;98611.56;6923837;28;20228;-79
2022/07/27 13:35:33;;;;;;;3.83;1.97;;;;;;;31.87;25.28;98642.25;6924381;28;20199;-79
2022/07/27 13:38:55;;;;;;;2.00;1.63;;;;;;;32.65;24.74;98636.06;6923838;28;20208;-79
2022/07/27 13:42:17;;;;;;;1.70;1.60;;;;;;;32.87;23.94;98641.16;6927939;28;20239;-79
2022/07/27 13:45:38;;;;;;;4.57;1.70;;;;;;;32.63;23.64;98634.78;6928168;28;20262;-79
2022/07/27 13:49:01;;;;;;;1.70;1.40;;;;;;;33.08;23.70;98633.38;6926320;28;20204;-80
2022/07/27 13:52:23;;;;;;;4.20;1.83;;;;;;;33.34;23.20;98625.38;6927034;28;20263;-79
2022/07/27 13:55:45;;;;;;;2.13;1.53;;;;;;;32.64;24.43;98597.31;6925697;28;20206;-80
2022/07/27 13:59:06;;;;;;;4.27;1.73;;;;;;;32.34;24.03;98591.25;6924845;28;20208;-78
2022/07/27 14:02:28;;;;;;;2.23;1.70;;;;;;;31.96;24.85;98629.81;6924694;28;20718;-79
2022/07/27 14:05:52;;;;;;;3.50;1.80;;;;;;;32.71;24.43;98625.44;6924959;28;20277;-79
2022/07/27 14:09:13;;;;;;;2.10;1.80;;;;;;;32.21;23.91;98620.31;6930792;28;20195;-80
2022/07/27 14:12:35;;;;;;;4.10;1.40;;;;;;;31.66;25.70;98610.84;6942628;28;20229;-79
2022/07/27 14:15:56;;;;;;;4.30;2.00;;;;;;;31.99;25.82;98619.94;6925482;28;20298;-79
2022/07/27 14:19:18;;;;;;;2.67;1.80;;;;;;;32.45;25.08;98600.75;6924834;28;20218;-79
2022/07/27 14:22:41;;;;;;;3.37;1.80;;;;;;;32.57;24.71;98595.16;6924886;28;20228;-79
2022/07/27 14:26:04;;;;;;;2.50;1.77;;;;;;;32.76;24.25;98609.31;6924495;28;20242;-79
2022/07/27 14:29:26;;;;;;;4.10;2.00;;;;;;;32.62;24.63;98603.28;6924409;28;20217;-79
2022/07/27 14:32:47;;;;;;;2.83;1.73;;;;;;;31.90;25.08;98613.69;6923442;28;20776;-79
2022/07/27 14:36:09;;;;;;;2.63;2.00;;;;;;;31.77;25.45;98610.06;6925483;28;20212;-79
2022/07/27 14:39:32;;;;;;;3.47;1.90;;;;;;;31.98;25.46;98621.94;6925080;28;20209;-79
2022/07/27 14:42:54;;;;;;;2.70;1.63;;;;;;;31.81;25.60;98613.81;6925767;28;20296;-79
2022/07/27 14:46:15;;;;;;;4.50;1.87;;;;;;;30.88;26.36;98565.47;6925283;28;20224;-79
2022/07/27 14:49:37;;;;;;;2.17;1.90;;;;;;;31.88;25.52;98600.09;6924650;28;20213;-79
2022/07/27 14:52:59;;;;;;;2.63;1.37;;;;;;;31.10;26.86;98612.44;6926827;28;20320;-79
2022/07/27 14:56:21;;;;;;;2.23;1.80;;;;;;;30.77;27.13;98580.97;6931456;28;20214;-79
2022/07/27 14:59:43;;;;;;;2.23;1.73;;;;;;;31.46;26.19;98583.88;6930833;28;20226;-79
2022/07/27 15:03:06;;;;;;;4.07;1.60;;;;;;;31.01;26.83;98617.28;6931907;28;20233;-79
2022/07/27 15:06:27;;;;;;;1.60;1.50;;;;;;;31.81;25.93;98610.19;6933335;28;20241;-79
2022/07/27 15:09:49;;;;;;;2.30;1.37;;;;;;;31.34;26.39;98595.81;6932775;28;20221;-79
2022/07/27 15:13:12;;;;;;;2.80;1.80;;;;;;;30.82;26.96;98607.78;6934323;28;20271;-79
2022/07/27 15:16:34;;;;;;;2.17;1.57;;;;;;;30.56;27.07;98598.81;6943471;28;20255;-80
2022/07/27 15:19:55;;;;;;;2.47;1.90;;;;;;;31.28;25.88;98600.00;6942984;28;20220;-79
2022/07/27 15:23:17;;;;;;;4.07;1.80;;;;;;;31.72;25.67;98595.56;6936474;28;20227;-79
2022/07/27 15:26:39;;;;;;;2.30;1.60;;;;;;;31.21;25.78;98601.69;6929719;28;20213;-79
2022/07/27 15:30:02;;;;;;;1.70;1.60;;;;;;;31.39;26.23;98611.50;6929215;28;20228;-78
2022/07/27 15:33:24;;;;;;;4.00;1.50;;;;;;;31.11;26.24;98604.88;6929831;28;20658;-78
2022/07/27 15:36:45;;;;;;;1.60;1.47;;;;;;;30.81;26.07;98597.81;6928534;28;20213;-79
2022/07/27 15:43:47;;;;;;;2.90;1.90;;;;;;;30.99;26.24;98604.84;6926940;28;20222;-79
2022/07/27 15:47:11;;;;;;;2.63;1.80;;;;;;;31.31;25.91;98588.13;6926647;28;20214;-79
2022/07/27 15:50:33;;;;;;;1.63;1.40;;;;;;;31.69;25.71;98610.16;6930304;28;20239;-79
2022/07/27 15:53:55;;;;;;;4.03;1.60;;;;;;;31.14;26.19;98599.44;6926955;28;20205;-79
2022/07/27 15:57:17;;;;;;;1.87;1.60;;;;;;;30.36;27.63;98600.44;6926638;28;20286;-79
2022/07/27 16:00:38;;;;;;;2.30;1.67;;;;;;;30.30;26.93;98595.44;6926027;28;20237;-78
2022/07/27 16:04:01;;;;;;;3.90;1.80;;;;;;;30.83;26.87;98582.41;6926439;28;20231;-79